Terminal Aerodrome Forecast
Issued by NWS Shreveport, LA

Home | Current Version | Previous Version | Text Only | Print | Product List | Glossary On
Versions: 1 2 3 4 5 6 7 8 9 10 11 12 13 14 15 16 17
000
FTUS44 KSHV 270132 AAA
TAFELD
TAF AMD
KELD 270132Z 2702/2724 10003KT P6SM FEW060 SCT140 SCT250
     FM270600 VRB03KT P6SM FEW060 BKN100 BKN250
      TEMPO 2710/2714 VRB10KT 5SM -TSRA BR BKN015CB
     FM271400 VRB04KT P6SM VCTS OVC015CB
     FM271800 VRB06KT P6SM VCTS OVC025CB=

USA.gov is the U.S. government's official web portal to all federal, state and local government web resources and services.